createdAt,value
2022-08-07T00:02:36.495Z,3.00
2022-08-07T00:05:05.771Z,3.10
2022-08-07T00:07:40.070Z,2.72
2022-08-07T00:10:27.350Z,3.03
2022-08-07T00:13:09.852Z,2.95
2022-08-07T00:15:51.515Z,3.03
2022-08-07T00:18:24.446Z,3.15
2022-08-07T00:20:55.156Z,3.13
2022-08-07T00:23:28.496Z,3.05
2022-08-07T00:26:04.127Z,2.90
2022-08-07T00:28:45.863Z,2.97
2022-08-07T00:31:26.039Z,2.95
2022-08-07T00:34:08.970Z,3.03
2022-08-07T00:36:38.682Z,2.92
2022-08-07T00:39:16.940Z,3.13
2022-08-07T00:42:02.455Z,3.13
2022-08-07T00:44:38.201Z,3.10
2022-08-07T00:47:16.028Z,3.40
2022-08-07T00:50:20.351Z,3.15
2022-08-07T00:52:47.318Z,3.00
2022-08-07T00:55:17.239Z,2.88
2022-08-07T00:57:55.179Z,2.85
2022-08-07T01:00:27.688Z,2.80
2022-08-07T01:02:56.771Z,2.70
2022-08-07T01:05:28.013Z,2.50
2022-08-07T01:07:58.405Z,2.75
2022-08-07T01:10:27.143Z,3.00
2022-08-07T01:12:55.898Z,2.88
2022-08-07T01:15:35.905Z,2.70
2022-08-07T01:18:17.081Z,2.58
2022-08-07T01:20:59.293Z,2.70
2022-08-07T01:23:34.671Z,2.70
2022-08-07T01:26:11.957Z,2.78
2022-08-07T01:28:45.834Z,2.50
2022-08-07T01:31:17.775Z,2.97
2022-08-07T01:33:56.108Z,3.00
2022-08-07T01:36:33.533Z,2.97
2022-08-07T01:39:09.511Z,2.83
2022-08-07T01:41:40.839Z,2.92
2022-08-07T01:44:27.800Z,2.80
2022-08-07T01:46:56.532Z,2.72
2022-08-07T01:49:25.016Z,2.92
2022-08-07T01:52:03.473Z,3.03
2022-08-07T01:54:37.815Z,2.80
2022-08-07T01:57:08.964Z,3.13
2022-08-07T01:59:55.000Z,3.03
2022-08-07T02:03:11.251Z,3.05
2022-08-07T02:05:43.065Z,3.45
2022-08-07T02:08:17.351Z,3.38
2022-08-07T02:10:55.457Z,3.35
2022-08-07T02:13:57.664Z,3.05
2022-08-07T02:16:28.737Z,3.85
2022-08-07T02:19:05.366Z,3.53
2022-08-07T02:21:58.587Z,3.05
2022-08-07T02:24:30.267Z,3.00
2022-08-07T02:27:02.965Z,3.42
2022-08-07T02:29:32.913Z,3.10
2022-08-07T02:32:06.632Z,3.40
2022-08-07T02:34:49.019Z,3.13
2022-08-07T02:37:21.392Z,3.50
2022-08-07T02:40:02.546Z,3.38
2022-08-07T02:42:43.849Z,3.28
2022-08-07T02:45:58.417Z,3.45
2022-08-07T02:48:05.249Z,3.20
2022-08-07T02:50:43.639Z,3.08
2022-08-07T02:53:16.344Z,3.38
2022-08-07T02:56:03.413Z,3.22
2022-08-07T02:58:36.692Z,3.70
2022-08-07T03:01:10.345Z,3.13
2022-08-07T03:03:49.827Z,3.28
2022-08-07T03:06:26.240Z,3.47
2022-08-07T03:09:02.897Z,3.60
2022-08-07T03:11:38.974Z,3.20
2022-08-07T03:14:23.225Z,3.20
2022-08-07T03:16:54.061Z,3.70
2022-08-07T03:19:22.683Z,3.20
2022-08-07T03:21:52.202Z,3.35
2022-08-07T03:24:26.925Z,3.00
2022-08-07T03:27:00.430Z,3.33
2022-08-07T03:29:36.685Z,3.30
2022-08-07T03:32:13.397Z,3.20
2022-08-07T03:34:47.628Z,3.25
2022-08-07T03:37:37.340Z,3.47
2022-08-07T03:40:16.926Z,3.22
2022-08-07T03:42:46.040Z,3.20
2022-08-07T03:45:30.153Z,3.70
2022-08-07T03:48:00.273Z,3.50
2022-08-07T03:50:29.663Z,3.30
2022-08-07T03:53:00.256Z,3.78
2022-08-07T03:55:52.953Z,3.53
2022-08-07T03:59:06.730Z,3.40
2022-08-07T04:01:11.665Z,3.60
2022-08-07T04:06:37.761Z,3.28
2022-08-07T04:09:11.762Z,3.40
2022-08-07T04:12:21.414Z,3.67
2022-08-07T04:14:38.625Z,3.30
2022-08-07T04:17:16.471Z,3.40
2022-08-07T04:19:54.072Z,3.50
2022-08-07T04:22:29.243Z,3.67
2022-08-07T04:25:01.640Z,3.78
2022-08-07T04:27:35.536Z,5.57
2022-08-07T04:30:11.631Z,4.60
2022-08-07T04:32:44.898Z,3.72
2022-08-07T04:35:16.351Z,3.33
2022-08-07T04:38:05.397Z,3.13
2022-08-07T04:40:33.361Z,3.38
2022-08-07T04:43:03.273Z,3.47
2022-08-07T04:45:58.093Z,3.40
2022-08-07T04:48:40.646Z,3.15
2022-08-07T04:54:06.508Z,3.40
2022-08-07T04:58:12.967Z,3.78
2022-08-07T05:00:10.783Z,3.28
2022-08-07T05:02:29.184Z,3.65
2022-08-07T05:05:11.968Z,3.55
2022-08-07T05:07:57.940Z,3.38
2022-08-07T05:10:33.125Z,3.05
2022-08-07T05:14:44.311Z,3.00
2022-08-07T05:15:59.205Z,3.30
2022-08-07T05:18:36.620Z,3.00
2022-08-07T05:21:10.857Z,2.80
2022-08-07T05:23:43.333Z,3.00
2022-08-07T05:26:24.097Z,3.35
2022-08-07T05:28:57.382Z,3.35
2022-08-07T05:31:35.277Z,3.13
2022-08-07T05:34:11.184Z,3.22
2022-08-07T05:40:17.371Z,3.20
2022-08-07T05:42:05.276Z,3.20
2022-08-07T05:44:37.835Z,3.17
2022-08-07T05:47:19.918Z,3.22
2022-08-07T05:52:20.636Z,3.08
2022-08-07T05:55:10.329Z,2.63
2022-08-07T05:57:41.979Z,2.80
2022-08-07T06:00:16.261Z,2.45
2022-08-07T06:02:51.402Z,2.50
2022-08-07T06:05:25.871Z,2.90
2022-08-07T06:08:29.564Z,2.55
2022-08-07T06:10:49.417Z,2.47
2022-08-07T06:14:12.257Z,2.65
2022-08-07T06:16:10.327Z,2.80
2022-08-07T06:18:43.331Z,2.90
2022-08-07T06:22:15.514Z,2.90
2022-08-07T06:24:50.730Z,2.90
2022-08-07T06:26:59.681Z,3.13
2022-08-07T06:29:33.916Z,3.13
2022-08-07T06:32:02.611Z,2.80
2022-08-07T06:34:33.060Z,2.80
2022-08-07T06:37:02.456Z,2.95
2022-08-07T06:40:13.545Z,2.90
2022-08-07T06:42:32.979Z,2.65
2022-08-07T06:45:05.559Z,2.90
2022-08-07T06:47:48.027Z,2.80
2022-08-07T06:50:27.147Z,2.80
2022-08-07T06:53:04.095Z,2.50
2022-08-07T06:56:00.032Z,2.33
2022-08-07T06:58:28.727Z,2.42
2022-08-07T07:00:59.371Z,2.53
2022-08-07T07:03:48.852Z,2.53
2022-08-07T07:06:23.749Z,2.15
2022-08-07T07:08:54.645Z,2.33
2022-08-07T07:12:08.937Z,2.40
2022-08-07T07:14:14.163Z,2.13
2022-08-07T07:16:50.774Z,2.63
2022-08-07T07:19:56.309Z,2.30
2022-08-07T07:22:36.236Z,2.75
2022-08-07T07:26:30.773Z,2.40
2022-08-07T07:28:07.754Z,2.80
2022-08-07T07:31:01.138Z,2.38
2022-08-07T07:36:05.543Z,2.10
2022-08-07T07:38:45.904Z,2.40
2022-08-07T07:41:17.580Z,2.33
2022-08-07T07:44:16.823Z,2.30
2022-08-07T07:46:55.329Z,2.22
2022-08-07T07:50:33.642Z,2.58
2022-08-07T07:52:19.016Z,2.75
2022-08-07T07:54:50.537Z,2.40
2022-08-07T07:57:44.372Z,2.13
2022-08-07T08:00:21.059Z,2.10
2022-08-07T08:03:07.869Z,2.20
2022-08-07T08:05:54.481Z,2.20
2022-08-07T08:08:36.305Z,2.05
2022-08-07T08:11:09.016Z,1.92
2022-08-07T08:13:54.029Z,2.70
2022-08-07T08:16:34.994Z,2.33
2022-08-07T08:19:17.416Z,2.45
2022-08-07T08:22:15.889Z,2.00
2022-08-07T08:25:24.865Z,2.05
2022-08-07T08:28:01.756Z,2.10
2022-08-07T08:30:35.067Z,2.25
2022-08-07T08:33:16.860Z,1.85
2022-08-07T08:35:49.894Z,2.15
2022-08-07T08:38:25.779Z,2.83
2022-08-07T08:41:05.069Z,2.10
2022-08-07T08:43:42.854Z,2.08
2022-08-07T08:46:44.973Z,1.98
2022-08-07T08:49:33.147Z,2.30
2022-08-07T08:52:13.729Z,1.98
2022-08-07T08:54:51.008Z,2.10
2022-08-07T08:57:30.390Z,2.30
2022-08-07T09:00:07.950Z,1.80
2022-08-07T09:02:49.507Z,2.28
2022-08-07T09:05:38.697Z,3.13
2022-08-07T09:08:28.794Z,2.33
2022-08-07T09:11:24.787Z,2.03
2022-08-07T09:14:12.296Z,2.40
2022-08-07T09:16:55.572Z,2.20
2022-08-07T09:19:53.503Z,1.90
2022-08-07T09:24:31.728Z,2.10
2022-08-07T09:25:40.460Z,1.95
2022-08-07T09:30:06.430Z,2.10
2022-08-07T09:31:15.596Z,1.95
2022-08-07T09:34:00.190Z,2.30
2022-08-07T09:36:37.068Z,2.10
2022-08-07T09:39:52.651Z,2.10
2022-08-07T09:42:22.915Z,2.07
2022-08-07T09:46:28.604Z,2.13
2022-08-07T09:48:11.742Z,2.17
2022-08-07T09:50:52.505Z,2.10
2022-08-07T09:53:23.622Z,2.00
2022-08-07T09:56:19.676Z,1.92
2022-08-07T09:59:35.645Z,1.60
2022-08-07T10:02:35.792Z,1.90
2022-08-07T10:05:59.101Z,1.83
2022-08-07T10:08:43.941Z,1.70
2022-08-07T10:12:02.721Z,2.08
2022-08-07T10:14:31.205Z,2.70
2022-08-07T10:17:14.116Z,1.90
2022-08-07T10:19:56.321Z,2.08
2022-08-07T10:22:50.973Z,2.30
2022-08-07T10:25:42.290Z,2.10
2022-08-07T10:28:25.963Z,1.95
2022-08-07T10:31:10.978Z,2.20
2022-08-07T10:34:05.833Z,2.10
2022-08-07T10:36:58.809Z,2.10
2022-08-07T10:40:02.705Z,2.13
2022-08-07T10:42:39.766Z,2.53
2022-08-07T10:45:25.268Z,2.22
2022-08-07T10:48:34.975Z,1.90
2022-08-07T10:51:16.975Z,1.80
2022-08-07T10:54:07.973Z,2.45
2022-08-07T10:56:46.879Z,1.73
2022-08-07T10:59:30.334Z,1.52
2022-08-07T11:02:12.479Z,2.10
2022-08-07T11:05:11.168Z,2.00
2022-08-07T11:08:00.835Z,1.95
2022-08-07T11:10:37.970Z,1.80
2022-08-07T11:13:42.415Z,2.00
2022-08-07T11:16:08.178Z,1.90
2022-08-07T11:18:50.923Z,2.05
2022-08-07T11:21:31.898Z,2.05
2022-08-07T11:24:08.518Z,1.77
2022-08-07T11:26:48.018Z,1.90
2022-08-07T11:29:41.202Z,2.00
2022-08-07T11:32:25.873Z,2.13
2022-08-07T11:34:59.747Z,1.88
2022-08-07T11:37:58.317Z,1.90
2022-08-07T11:40:40.890Z,2.00
2022-08-07T11:43:41.239Z,1.80
2022-08-07T11:46:29.504Z,2.00
2022-08-07T11:50:25.593Z,1.88
2022-08-07T11:52:51.235Z,2.40
2022-08-07T11:56:25.235Z,2.10
2022-08-07T11:58:33.429Z,2.00
2022-08-07T12:01:20.175Z,2.00
2022-08-07T12:04:26.851Z,2.25
2022-08-07T12:07:03.921Z,2.15
2022-08-07T12:09:47.361Z,2.17
2022-08-07T12:12:26.480Z,1.60
2022-08-07T12:15:05.093Z,1.98
2022-08-07T12:17:58.875Z,2.20
2022-08-07T12:20:32.268Z,2.10
2022-08-07T12:23:17.859Z,2.05
2022-08-07T12:26:05.495Z,2.00
2022-08-07T12:28:53.960Z,2.40
2022-08-07T12:32:02.186Z,2.08
2022-08-07T12:34:27.472Z,2.03
2022-08-07T12:36:58.907Z,2.35
2022-08-07T12:39:43.869Z,2.00
2022-08-07T12:42:27.589Z,2.00
2022-08-07T12:45:00.256Z,2.10
2022-08-07T12:47:42.787Z,1.90
2022-08-07T12:50:33.994Z,1.70
2022-08-07T12:53:18.141Z,1.90
2022-08-07T12:56:02.452Z,2.22
2022-08-07T12:58:39.913Z,2.17
2022-08-07T13:01:19.554Z,2.20
2022-08-07T13:04:05.054Z,2.58
2022-08-07T13:07:03.971Z,2.00
2022-08-07T13:10:37.101Z,1.83
2022-08-07T13:13:00.608Z,1.92
2022-08-07T13:15:57.317Z,3.20
2022-08-07T13:18:38.453Z,2.10
2022-08-07T13:21:14.327Z,1.85
2022-08-07T13:24:11.531Z,1.90
2022-08-07T13:26:46.366Z,1.92
2022-08-07T13:29:21.733Z,2.40
2022-08-07T13:32:00.065Z,2.00
2022-08-07T13:34:44.814Z,1.90
2022-08-07T13:37:26.724Z,1.73
2022-08-07T13:40:41.736Z,2.00
2022-08-07T13:42:59.365Z,1.85
2022-08-07T13:46:16.405Z,1.80
2022-08-07T13:48:33.763Z,2.88
2022-08-07T13:51:27.510Z,2.75
2022-08-07T13:54:00.264Z,1.95
2022-08-07T13:56:36.119Z,2.42
2022-08-07T13:59:13.566Z,2.20
2022-08-07T14:01:51.541Z,2.45
2022-08-07T14:04:36.395Z,2.33
2022-08-07T14:07:10.455Z,1.90
2022-08-07T14:10:01.325Z,2.35
2022-08-07T14:12:41.655Z,2.33
2022-08-07T14:15:19.280Z,2.28
2022-08-07T14:18:15.963Z,1.90
2022-08-07T14:22:41.032Z,1.98
2022-08-07T14:24:00.261Z,2.20
2022-08-07T14:26:35.862Z,2.67
2022-08-07T14:30:05.596Z,2.00
2022-08-07T14:34:31.952Z,1.98
2022-08-07T14:37:04.407Z,2.10
2022-08-07T14:40:16.565Z,2.38
2022-08-07T14:42:32.256Z,3.13
2022-08-07T14:47:58.712Z,2.53
2022-08-07T14:50:37.441Z,3.40
2022-08-07T14:53:09.777Z,2.17
2022-08-07T14:55:55.553Z,2.22
2022-08-07T14:58:32.520Z,2.35
2022-08-07T15:01:21.501Z,2.35
2022-08-07T15:03:53.357Z,2.20
2022-08-07T15:06:26.822Z,2.00
2022-08-07T15:09:47.125Z,2.10
2022-08-07T15:13:05.887Z,2.42
2022-08-07T15:14:57.776Z,2.53
2022-08-07T15:17:32.656Z,3.20
2022-08-07T15:20:33.205Z,2.50
2022-08-07T15:25:58.460Z,2.47
2022-08-07T15:32:00.765Z,2.03
2022-08-07T15:39:59.035Z,2.10
2022-08-07T15:42:51.825Z,2.30
2022-08-07T15:45:55.759Z,2.50
2022-08-07T15:48:31.611Z,2.58
2022-08-07T15:51:09.232Z,2.40
2022-08-07T15:53:52.363Z,2.25
2022-08-07T15:56:33.293Z,2.10
2022-08-07T15:59:06.121Z,2.65
2022-08-07T16:02:01.912Z,2.05
2022-08-07T16:04:34.161Z,2.38
2022-08-07T16:08:32.850Z,2.15
2022-08-07T16:10:03.785Z,3.15
2022-08-07T16:12:42.157Z,1.90
2022-08-07T16:15:57.705Z,2.03
2022-08-07T16:18:49.314Z,3.03
2022-08-07T16:22:01.183Z,5.25
2022-08-07T16:24:34.733Z,4.63
2022-08-07T16:27:17.873Z,2.78
2022-08-07T16:30:30.478Z,2.93
2022-08-07T16:34:06.022Z,2.60
2022-08-07T16:36:20.177Z,2.45
2022-08-07T16:39:33.622Z,3.65
2022-08-07T16:42:30.154Z,4.28
2022-08-07T16:46:21.191Z,5.78
2022-08-07T16:49:04.325Z,2.53
2022-08-07T16:52:01.877Z,2.80
2022-08-07T16:54:54.158Z,2.85
2022-08-07T16:58:01.813Z,3.10
2022-08-07T17:00:30.155Z,3.15
2022-08-07T17:03:58.275Z,3.65
2022-08-07T17:06:30.380Z,2.80
2022-08-07T17:09:13.981Z,2.45
2022-08-07T17:12:04.090Z,3.78
2022-08-07T17:14:44.996Z,3.92
2022-08-07T17:17:46.059Z,5.30
2022-08-07T17:20:30.061Z,3.67
2022-08-07T17:23:08.592Z,2.42
2022-08-07T17:25:54.571Z,2.70
2022-08-07T17:28:32.408Z,3.97
2022-08-07T17:31:15.669Z,2.60
2022-08-07T17:34:17.938Z,10.20
2022-08-07T17:36:57.463Z,7.90
2022-08-07T17:39:53.090Z,6.88
2022-08-07T17:42:59.620Z,4.18
2022-08-07T17:45:35.065Z,3.15
2022-08-07T17:48:12.658Z,3.58
2022-08-07T17:50:54.400Z,2.80
2022-08-07T17:54:00.711Z,4.20
2022-08-07T17:56:29.198Z,11.50
2022-08-07T17:59:08.961Z,4.07
2022-08-07T18:01:48.563Z,3.30
2022-08-07T18:04:31.221Z,3.38
2022-08-07T18:07:20.200Z,3.00
2022-08-07T18:10:06.273Z,3.25
2022-08-07T18:13:09.956Z,4.90
2022-08-07T18:15:53.576Z,4.05
2022-08-07T18:18:46.130Z,3.33
2022-08-07T18:21:37.338Z,2.60
2022-08-07T18:24:33.409Z,2.95
2022-08-07T18:27:38.408Z,6.22
2022-08-07T18:30:32.321Z,5.43
2022-08-07T18:33:34.716Z,4.38
2022-08-07T18:36:14.110Z,5.18
2022-08-07T18:40:07.164Z,4.40
2022-08-07T18:42:03.993Z,11.13
2022-08-07T18:47:49.075Z,4.43
2022-08-07T18:50:58.481Z,5.85
2022-08-07T18:53:45.153Z,4.40
2022-08-07T18:56:32.094Z,4.00
2022-08-07T18:59:47.208Z,4.03
2022-08-07T19:02:42.414Z,6.40
2022-08-07T19:05:21.293Z,3.05
2022-08-07T19:07:58.665Z,4.07
2022-08-07T19:10:49.614Z,4.03
2022-08-07T19:13:26.591Z,3.88
2022-08-07T19:16:04.759Z,3.60
2022-08-07T19:18:58.056Z,3.72
2022-08-07T19:21:44.136Z,3.40
2022-08-07T19:24:30.388Z,3.85
2022-08-07T19:28:58.035Z,7.88
2022-08-07T19:31:05.606Z,4.35
2022-08-07T19:32:50.887Z,3.65
2022-08-07T19:35:24.520Z,3.70
2022-08-07T19:37:58.312Z,3.15
2022-08-07T19:43:09.393Z,4.57
2022-08-07T19:46:07.180Z,4.97
2022-08-07T19:48:42.999Z,2.88
2022-08-07T19:51:20.033Z,3.15
2022-08-07T19:54:32.173Z,7.25
2022-08-07T19:57:50.932Z,7.22
2022-08-07T19:59:40.509Z,3.22
2022-08-07T20:02:19.698Z,3.80
2022-08-07T20:05:00.412Z,4.68
2022-08-07T20:07:47.855Z,3.10
2022-08-07T20:10:37.041Z,3.10
2022-08-07T20:13:23.428Z,3.30
2022-08-07T20:15:57.811Z,2.80
2022-08-07T20:18:32.721Z,3.40
2022-08-07T20:21:21.571Z,3.30
2022-08-07T20:24:00.154Z,3.50
2022-08-07T20:26:32.385Z,3.05
2022-08-07T20:29:10.414Z,4.15
2022-08-07T20:31:46.530Z,3.30
2022-08-07T20:34:40.073Z,3.20
2022-08-07T20:37:10.092Z,3.15
2022-08-07T20:40:02.958Z,3.70
2022-08-07T20:42:32.293Z,3.42
2022-08-07T20:45:02.131Z,3.30
2022-08-07T20:47:55.524Z,4.15
2022-08-07T20:50:28.992Z,3.85
2022-08-07T20:53:00.270Z,4.78
2022-08-07T20:55:35.974Z,3.85
2022-08-07T20:58:08.874Z,4.03
2022-08-07T21:00:46.044Z,4.15
2022-08-07T21:03:18.919Z,4.85
2022-08-07T21:05:56.975Z,5.43
2022-08-07T21:08:36.536Z,4.22
2022-08-07T21:11:12.220Z,6.30
2022-08-07T21:14:16.180Z,3.42
2022-08-07T21:16:56.087Z,3.60
2022-08-07T21:19:32.340Z,3.55
2022-08-07T21:22:19.064Z,4.57
2022-08-07T21:25:04.723Z,3.42
2022-08-07T21:27:53.696Z,3.60
2022-08-07T21:30:30.089Z,3.30
2022-08-07T21:33:08.657Z,3.25
2022-08-07T21:36:05.277Z,3.58
2022-08-07T21:38:46.201Z,3.28
2022-08-07T21:41:25.758Z,3.45
2022-08-07T21:44:05.404Z,3.65
2022-08-07T21:46:42.008Z,4.10
2022-08-07T21:49:16.404Z,3.85
2022-08-07T21:52:06.251Z,3.28
2022-08-07T21:54:51.133Z,3.65
2022-08-07T21:57:44.638Z,3.72
2022-08-07T22:00:23.246Z,3.60
2022-08-07T22:03:03.608Z,3.60
2022-08-07T22:05:45.914Z,3.38
2022-08-07T22:08:21.728Z,3.47
2022-08-07T22:10:58.965Z,3.80
2022-08-07T22:13:50.980Z,3.40
2022-08-07T22:16:40.948Z,3.55
2022-08-07T22:19:29.380Z,3.75
2022-08-07T22:22:18.190Z,3.90
2022-08-07T22:25:02.969Z,4.00
2022-08-07T22:28:03.163Z,3.97
2022-08-07T22:30:30.918Z,3.65
2022-08-07T22:33:09.180Z,3.90
2022-08-07T22:35:42.894Z,3.60
2022-08-07T22:38:30.868Z,3.50
2022-08-07T22:41:07.433Z,3.47
2022-08-07T22:43:41.912Z,3.28
2022-08-07T22:49:54.229Z,3.53
2022-08-07T22:52:46.385Z,3.17
2022-08-07T22:55:31.987Z,3.80
2022-08-07T22:58:45.041Z,3.67
2022-08-07T23:01:30.558Z,3.78
2022-08-07T23:04:35.182Z,4.10
2022-08-07T23:07:41.805Z,3.90
2022-08-07T23:10:38.014Z,3.80
2022-08-07T23:13:29.510Z,3.58
2022-08-07T23:16:46.344Z,4.40
2022-08-07T23:19:51.392Z,3.95
2022-08-07T23:22:36.012Z,3.40
2022-08-07T23:25:21.539Z,3.85
2022-08-07T23:28:29.025Z,3.60
2022-08-07T23:31:18.820Z,3.67
2022-08-07T23:34:43.175Z,3.97
2022-08-07T23:37:29.413Z,3.63
2022-08-07T23:40:13.748Z,3.75
2022-08-07T23:42:54.592Z,3.80
2022-08-07T23:46:01.448Z,3.72
2022-08-07T23:48:34.075Z,3.55
2022-08-07T23:52:55.916Z,3.87
2022-08-07T23:54:05.392Z,3.50
2022-08-07T23:56:53.981Z,3.65
